sensor_id;sensor_type;location;lat;lon;timestamp;pressure;altitude;pressure_sealevel;temperature;humidity
13314;BME280;6725;48.112;11.604;2023-02-07T00:00:46;96840.47;;;-3.59;100.00
13314;BME280;6725;48.112;11.604;2023-02-07T00:03:11;96842.31;;;-3.55;100.00
13314;BME280;6725;48.112;11.604;2023-02-07T00:05:37;96837.00;;;-3.60;100.00
13314;BME280;6725;48.112;11.604;2023-02-07T00:08:03;96833.00;;;-3.57;100.00
13314;BME280;6725;48.112;11.604;2023-02-07T00:10:29;96828.22;;;-3.60;100.00
13314;BME280;6725;48.112;11.604;2023-02-07T00:12:55;96829.56;;;-3.63;100.00
13314;BME280;6725;48.112;11.604;2023-02-07T00:15:20;96813.31;;;-3.66;100.00
13314;BME280;6725;48.112;11.604;2023-02-07T00:17:46;96810.91;;;-3.68;100.00
13314;BME280;6725;48.112;11.604;2023-02-07T00:20:11;96807.47;;;-3.68;100.00
13314;BME280;6725;48.112;11.604;2023-02-07T00:22:37;96802.41;;;-3.70;100.00
13314;BME280;6725;48.112;11.604;2023-02-07T00:25:02;96799.19;;;-3.72;100.00
13314;BME280;6725;48.112;11.604;2023-02-07T00:27:28;96791.47;;;-3.73;100.00
13314;BME280;6725;48.112;11.604;2023-02-07T00:29:53;96784.78;;;-3.71;100.00
13314;BME280;6725;48.112;11.604;2023-02-07T00:32:18;96782.38;;;-3.72;100.00
13314;BME280;6725;48.112;11.604;2023-02-07T00:34:47;96782.72;;;-3.79;100.00
13314;BME280;6725;48.112;11.604;2023-02-07T00:37:15;96763.00;;;-3.83;100.00
13314;BME280;6725;48.112;11.604;2023-02-07T00:39:40;96755.56;;;-3.86;100.00
13314;BME280;6725;48.112;11.604;2023-02-07T00:42:06;96747.81;;;-3.87;100.00
13314;BME280;6725;48.112;11.604;2023-02-07T00:44:31;96735.03;;;-3.90;100.00
13314;BME280;6725;48.112;11.604;2023-02-07T00:46:57;96726.25;;;-3.91;100.00
13314;BME280;6725;48.112;11.604;2023-02-07T00:49:23;96726.25;;;-3.91;100.00
13314;BME280;6725;48.112;11.604;2023-02-07T00:51:48;96720.94;;;-3.91;100.00
13314;BME280;6725;48.112;11.604;2023-02-07T00:54:14;96717.47;;;-3.91;100.00
13314;BME280;6725;48.112;11.604;2023-02-07T00:56:39;96725.78;;;-3.98;100.00
13314;BME280;6725;48.112;11.604;2023-02-07T00:59:05;96707.16;;;-4.03;100.00
13314;BME280;6725;48.112;11.604;2023-02-07T01:01:31;96704.78;;;-4.04;100.00
13314;BME280;6725;48.112;11.604;2023-02-07T01:03:56;96703.00;;;-4.14;100.00
13314;BME280;6725;48.112;11.604;2023-02-07T01:06:22;96702.38;;;-4.06;100.00
13314;BME280;6725;48.112;11.604;2023-02-07T01:08:47;96697.06;;;-4.06;100.00
13314;BME280;6725;48.112;11.604;2023-02-07T01:11:15;96698.41;;;-4.08;100.00
13314;BME280;6725;48.112;11.604;2023-02-07T01:13:41;96690.41;;;-4.08;100.00
13314;BME280;6725;48.112;11.604;2023-02-07T01:16:36;96699.50;;;-4.14;100.00
13314;BME280;6725;48.112;11.604;2023-02-07T01:19:07;96689.59;;;-4.09;100.00
13314;BME280;6725;48.112;11.604;2023-02-07T01:21:33;96689.06;;;-4.11;100.00
13314;BME280;6725;48.112;11.604;2023-02-07T01:23:58;96699.25;;;-4.13;100.00
13314;BME280;6725;48.112;11.604;2023-02-07T01:26:25;96697.66;;;-4.14;100.00
13314;BME280;6725;48.112;11.604;2023-02-07T01:28:52;96712.09;;;-4.20;100.00
13314;BME280;6725;48.112;11.604;2023-02-07T01:31:19;96708.88;;;-4.22;100.00
13314;BME280;6725;48.112;11.604;2023-02-07T01:33:46;96719.81;;;-4.18;100.00
13314;BME280;6725;48.112;11.604;2023-02-07T01:36:14;96713.66;;;-4.19;100.00
13314;BME280;6725;48.112;11.604;2023-02-07T01:38:40;96711.00;;;-4.19;100.00
13314;BME280;6725;48.112;11.604;2023-02-07T01:41:06;96701.97;;;-4.23;100.00
13314;BME280;6725;48.112;11.604;2023-02-07T01:43:31;96693.69;;;-4.21;100.00
13314;BME280;6725;48.112;11.604;2023-02-07T01:45:57;96700.41;;;-4.29;100.00
13314;BME280;6725;48.112;11.604;2023-02-07T01:48:27;96695.94;;;-4.33;100.00
13314;BME280;6725;48.112;11.604;2023-02-07T01:50:56;96696.97;;;-4.34;100.00
13314;BME280;6725;48.112;11.604;2023-02-07T01:53:26;96697.50;;;-4.32;100.00
13314;BME280;6725;48.112;11.604;2023-02-07T01:55:55;96701.00;;;-4.37;100.00
13314;BME280;6725;48.112;11.604;2023-02-07T01:58:21;96704.69;;;-4.33;100.00
13314;BME280;6725;48.112;11.604;2023-02-07T02:00:47;96713.78;;;-4.34;100.00
13314;BME280;6725;48.112;11.604;2023-02-07T02:03:14;96721.53;;;-4.37;100.00
13314;BME280;6725;48.112;11.604;2023-02-07T02:05:40;96719.09;;;-4.34;100.00
13314;BME280;6725;48.112;11.604;2023-02-07T02:08:07;96717.53;;;-4.40;100.00
13314;BME280;6725;48.112;11.604;2023-02-07T02:21:57;96744.75;;;-4.43;100.00
13314;BME280;6725;48.112;11.604;2023-02-07T02:27:20;96737.84;;;-4.49;100.00
13314;BME280;6725;48.112;11.604;2023-02-07T02:35:43;96743.75;;;-4.62;100.00
13314;BME280;6725;48.112;11.604;2023-02-07T02:38:20;96750.72;;;-4.61;100.00
13314;BME280;6725;48.112;11.604;2023-02-07T02:41:00;96746.72;;;-4.68;100.00
13314;BME280;6725;48.112;11.604;2023-02-07T02:46:06;96745.38;;;-4.66;100.00
13314;BME280;6725;48.112;11.604;2023-02-07T02:48:34;96749.13;;;-4.67;100.00
13314;BME280;6725;48.112;11.604;2023-02-07T02:51:00;96753.41;;;-4.71;100.00
13314;BME280;6725;48.112;11.604;2023-02-07T02:53:26;96757.94;;;-4.71;100.00
13314;BME280;6725;48.112;11.604;2023-02-07T03:01:22;96785.59;;;-4.67;100.00
13314;BME280;6725;48.112;11.604;2023-02-07T03:12:21;96801.09;;;-4.79;100.00
13314;BME280;6725;48.112;11.604;2023-02-07T03:20:25;96825.88;;;-4.79;100.00
13314;BME280;6725;48.112;11.604;2023-02-07T03:22:56;96822.94;;;-4.82;100.00
13314;BME280;6725;48.112;11.604;2023-02-07T03:25:23;96812.03;;;-4.81;100.00
13314;BME280;6725;48.112;11.604;2023-02-07T03:27:49;96798.19;;;-4.88;100.00
13314;BME280;6725;48.112;11.604;2023-02-07T03:30:19;96807.25;;;-4.84;100.00
13314;BME280;6725;48.112;11.604;2023-02-07T03:32:57;96803.53;;;-4.83;100.00
13314;BME280;6725;48.112;11.604;2023-02-07T03:37:54;96804.09;;;-4.91;100.00
13314;BME280;6725;48.112;11.604;2023-02-07T03:40:22;96807.56;;;-5.00;100.00
13314;BME280;6725;48.112;11.604;2023-02-07T03:45:30;96792.94;;;-4.98;100.00
13314;BME280;6725;48.112;11.604;2023-02-07T03:47:55;96781.75;;;-5.00;100.00
13314;BME280;6725;48.112;11.604;2023-02-07T03:50:21;96771.38;;;-4.96;100.00
13314;BME280;6725;48.112;11.604;2023-02-07T03:52:46;96778.84;;;-5.03;100.00
13314;BME280;6725;48.112;11.604;2023-02-07T03:55:12;96774.81;;;-5.06;100.00
13314;BME280;6725;48.112;11.604;2023-02-07T03:57:37;96796.66;;;-5.04;100.00
13314;BME280;6725;48.112;11.604;2023-02-07T04:00:04;96792.66;;;-5.01;100.00
13314;BME280;6725;48.112;11.604;2023-02-07T04:02:30;96799.56;;;-5.00;100.00
13314;BME280;6725;48.112;11.604;2023-02-07T04:04:55;96803.84;;;-4.99;100.00
13314;BME280;6725;48.112;11.604;2023-02-07T04:07:20;96807.56;;;-5.00;100.00
13314;BME280;6725;48.112;11.604;2023-02-07T04:09:46;96813.16;;;-4.97;100.00
13314;BME280;6725;48.112;11.604;2023-02-07T04:12:11;96811.81;;;-4.94;100.00
13314;BME280;6725;48.112;11.604;2023-02-07T04:14:36;96813.19;;;-5.02;100.00
13314;BME280;6725;48.112;11.604;2023-02-07T04:17:02;96800.41;;;-5.05;100.00
13314;BME280;6725;48.112;11.604;2023-02-07T04:19:27;96801.44;;;-5.06;100.00
13314;BME280;6725;48.112;11.604;2023-02-07T04:21:52;96787.63;;;-5.08;100.00
13314;BME280;6725;48.112;11.604;2023-02-07T04:24:18;96778.81;;;-5.08;100.00
13314;BME280;6725;48.112;11.604;2023-02-07T04:26:43;96767.13;;;-5.12;100.00
13314;BME280;6725;48.112;11.604;2023-02-07T04:29:09;96764.19;;;-5.11;100.00
13314;BME280;6725;48.112;11.604;2023-02-07T04:31:34;96757.81;;;-5.10;100.00
13314;BME280;6725;48.112;11.604;2023-02-07T04:34:01;96778.06;;;-5.09;100.00
13314;BME280;6725;48.112;11.604;2023-02-07T04:36:27;96774.34;;;-5.13;100.00
13314;BME280;6725;48.112;11.604;2023-02-07T04:38:54;96759.44;;;-5.19;100.00
13314;BME280;6725;48.112;11.604;2023-02-07T04:41:19;96748.25;;;-5.21;100.00
13314;BME280;6725;48.112;11.604;2023-02-07T04:43:44;96735.50;;;-5.29;100.00
13314;BME280;6725;48.112;11.604;2023-02-07T04:46:10;96728.06;;;-5.27;100.00
13314;BME280;6725;48.112;11.604;2023-02-07T04:48:36;96735.50;;;-5.29;100.00
13314;BME280;6725;48.112;11.604;2023-02-07T04:51:02;96734.44;;;-5.33;100.00
13314;BME280;6725;48.112;11.604;2023-02-07T04:53:27;96718.50;;;-5.33;100.00
13314;BME280;6725;48.112;11.604;2023-02-07T04:55:53;96714.25;;;-5.34;100.00
13314;BME280;6725;48.112;11.604;2023-02-07T04:58:20;96706.25;;;-5.34;100.00
13314;BME280;6725;48.112;11.604;2023-02-07T05:00:45;96708.91;;;-5.34;100.00
13314;BME280;6725;48.112;11.604;2023-02-07T05:03:11;96702.00;;;-5.30;100.00
13314;BME280;6725;48.112;11.604;2023-02-07T05:05:37;96687.59;;;-5.29;100.00
13314;BME280;6725;48.112;11.604;2023-02-07T05:08:03;96694.53;;;-5.33;100.00
13314;BME280;6725;48.112;11.604;2023-02-07T05:10:29;96686.03;;;-5.30;100.00
13314;BME280;6725;48.112;11.604;2023-02-07T05:12:54;96695.56;;;-5.24;100.00
13314;BME280;6725;48.112;11.604;2023-02-07T05:15:19;96688.66;;;-5.25;100.00
13314;BME280;6725;48.112;11.604;2023-02-07T05:17:45;96701.44;;;-5.27;100.00
13314;BME280;6725;48.112;11.604;2023-02-07T05:20:10;96699.84;;;-5.28;100.00
13314;BME280;6725;48.112;11.604;2023-02-07T05:22:36;96694.50;;;-5.28;100.00
13314;BME280;6725;48.112;11.604;2023-02-07T05:25:01;96699.31;;;-5.35;100.00
13314;BME280;6725;48.112;11.604;2023-02-07T05:27:27;96696.16;;;-5.37;100.00
13314;BME280;6725;48.112;11.604;2023-02-07T05:29:52;96698.28;;;-5.39;100.00
13314;BME280;6725;48.112;11.604;2023-02-07T05:32:17;96704.66;;;-5.40;100.00
13314;BME280;6725;48.112;11.604;2023-02-07T05:35:01;96700.44;;;-5.41;100.00
13314;BME280;6725;48.112;11.604;2023-02-07T05:37:27;96692.44;;;-5.46;100.00
13314;BME280;6725;48.112;11.604;2023-02-07T05:39:52;96695.63;;;-5.44;100.00
13314;BME280;6725;48.112;11.604;2023-02-07T05:42:17;96698.31;;;-5.49;100.00
13314;BME280;6725;48.112;11.604;2023-02-07T05:44:44;96684.75;;;-5.47;100.00
13314;BME280;6725;48.112;11.604;2023-02-07T05:47:09;96687.69;;;-5.49;100.00
13314;BME280;6725;48.112;11.604;2023-02-07T05:49:35;96669.56;;;-5.47;100.00
13314;BME280;6725;48.112;11.604;2023-02-07T05:52:00;96663.19;;;-5.51;100.00
13314;BME280;6725;48.112;11.604;2023-02-07T05:54:25;96663.75;;;-5.54;100.00
13314;BME280;6725;48.112;11.604;2023-02-07T05:56:51;96656.28;;;-5.52;100.00
13314;BME280;6725;48.112;11.604;2023-02-07T05:59:16;96667.47;;;-5.55;100.00
13314;BME280;6725;48.112;11.604;2023-02-07T06:01:41;96664.28;;;-5.57;100.00
13314;BME280;6725;48.112;11.604;2023-02-07T06:04:07;96662.19;;;-5.60;100.00
13314;BME280;6725;48.112;11.604;2023-02-07T06:06:32;96655.25;;;-5.61;100.00
13314;BME280;6725;48.112;11.604;2023-02-07T06:08:58;96662.16;;;-5.65;100.00
13314;BME280;6725;48.112;11.604;2023-02-07T06:11:23;96660.59;;;-5.66;100.00
13314;BME280;6725;48.112;11.604;2023-02-07T06:13:48;96649.94;;;-5.66;100.00
13314;BME280;6725;48.112;11.604;2023-02-07T06:16:14;96648.38;;;-5.67;100.00
13314;BME280;6725;48.112;11.604;2023-02-07T06:18:39;96645.44;;;-5.65;100.00
13314;BME280;6725;48.112;11.604;2023-02-07T06:21:05;96657.38;;;-5.68;100.00
13314;BME280;6725;48.112;11.604;2023-02-07T06:23:30;96652.06;;;-5.68;100.00
13314;BME280;6725;48.112;11.604;2023-02-07T06:25:55;96651.28;;;-5.68;100.00
13314;BME280;6725;48.112;11.604;2023-02-07T06:28:21;96642.00;;;-5.71;100.00
13314;BME280;6725;48.112;11.604;2023-02-07T06:30:46;96643.31;;;-5.73;100.00
13314;BME280;6725;48.112;11.604;2023-02-07T06:33:11;96648.09;;;-5.70;100.00
13314;BME280;6725;48.112;11.604;2023-02-07T06:35:37;96648.63;;;-5.68;100.00
13314;BME280;6725;48.112;11.604;2023-02-07T06:38:02;96646.75;;;-5.68;100.00
13314;BME280;6725;48.112;11.604;2023-02-07T06:40:28;96639.56;;;-5.62;100.00
13314;BME280;6725;48.112;11.604;2023-02-07T06:42:54;96643.00;;;-5.57;100.00
13314;BME280;6725;48.112;11.604;2023-02-07T06:45:19;96643.00;;;-5.57;100.00
13314;BME280;6725;48.112;11.604;2023-02-07T06:47:45;96644.31;;;-5.49;100.00
13314;BME280;6725;48.112;11.604;2023-02-07T06:50:10;96651.41;;;-5.25;100.00
13314;BME280;6725;48.112;11.604;2023-02-07T06:52:35;96654.97;;;-4.86;100.00
13314;BME280;6725;48.112;11.604;2023-02-07T06:55:01;96658.91;;;-4.40;100.00
13314;BME280;6725;48.112;11.604;2023-02-07T06:57:26;96679.44;;;-4.07;100.00
13314;BME280;6725;48.112;11.604;2023-02-07T06:59:52;96715.53;;;-3.81;100.00
13314;BME280;6725;48.112;11.604;2023-02-07T07:02:17;96756.81;;;-3.45;100.00
13314;BME280;6725;48.112;11.604;2023-02-07T07:04:42;96781.56;;;-2.82;100.00
13314;BME280;6725;48.112;11.604;2023-02-07T07:07:08;96820.38;;;-2.42;100.00
13314;BME280;6725;48.112;11.604;2023-02-07T07:09:34;96869.47;;;-2.33;100.00
13314;BME280;6725;48.112;11.604;2023-02-07T07:11:59;96902.94;;;-1.70;100.00
13314;BME280;6725;48.112;11.604;2023-02-07T07:14:25;96944.47;;;-1.54;100.00
13314;BME280;6725;48.112;11.604;2023-02-07T07:16:50;96965.03;;;-0.76;100.00
13314;BME280;6725;48.112;11.604;2023-02-07T07:19:15;97005.94;;;-0.70;100.00
13314;BME280;6725;48.112;11.604;2023-02-07T07:21:41;97026.44;;;-0.10;100.00
13314;BME280;6725;48.112;11.604;2023-02-07T07:24:06;97032.84;;;0.35;100.00
13314;BME280;6725;48.112;11.604;2023-02-07T07:26:32;97059.81;;;0.43;100.00
13314;BME280;6725;48.112;11.604;2023-02-07T07:28:57;97070.94;;;0.23;100.00
13314;BME280;6725;48.112;11.604;2023-02-07T07:31:24;97071.78;;;0.37;100.00
13314;BME280;6725;48.112;11.604;2023-02-07T07:33:52;97083.22;;;0.56;100.00
13314;BME280;6725;48.112;11.604;2023-02-07T07:36:17;97096.75;;;-0.27;100.00
13314;BME280;6725;48.112;11.604;2023-02-07T07:38:43;97094.34;;;0.36;100.00
13314;BME280;6725;48.112;11.604;2023-02-07T07:41:08;97098.91;;;0.22;100.00
13314;BME280;6725;48.112;11.604;2023-02-07T07:43:34;97084.44;;;0.91;100.00
13314;BME280;6725;48.112;11.604;2023-02-07T07:45:59;97082.53;;;0.64;100.00
13314;BME280;6725;48.112;11.604;2023-02-07T07:48:25;97089.69;;;0.82;100.00
13314;BME280;6725;48.112;11.604;2023-02-07T07:50:51;97086.00;;;0.92;100.00
13314;BME280;6725;48.112;11.604;2023-02-07T07:53:17;97080.75;;;0.14;100.00
13314;BME280;6725;48.112;11.604;2023-02-07T07:55:51;97081.00;;;-0.33;100.00
13314;BME280;6725;48.112;11.604;2023-02-07T07:58:17;97082.47;;;-0.59;100.00
13314;BME280;6725;48.112;11.604;2023-02-07T08:00:43;97072.03;;;-0.61;100.00
13314;BME280;6725;48.112;11.604;2023-02-07T08:03:09;97061.69;;;0.29;100.00
13314;BME280;6725;48.112;11.604;2023-02-07T08:05:35;97055.84;;;0.27;100.00
13314;BME280;6725;48.112;11.604;2023-02-07T08:08:00;97072.63;;;-0.45;100.00
13314;BME280;6725;48.112;11.604;2023-02-07T08:10:26;97071.78;;;0.37;100.00
13314;BME280;6725;48.112;11.604;2023-02-07T08:12:51;97067.22;;;0.78;100.00
13314;BME280;6725;48.112;11.604;2023-02-07T08:15:17;97074.38;;;0.96;100.00
13314;BME280;6725;48.112;11.604;2023-02-07T08:17:42;97071.41;;;1.33;100.00
13314;BME280;6725;48.112;11.604;2023-02-07T08:20:08;97081.53;;;1.50;100.00
13314;BME280;6725;48.112;11.604;2023-02-07T08:22:33;97082.03;;;1.74;100.00
13314;BME280;6725;48.112;11.604;2023-02-07T08:24:59;97074.38;;;1.89;100.00
13314;BME280;6725;48.112;11.604;2023-02-07T08:27:24;97073.03;;;1.78;100.00
13314;BME280;6725;48.112;11.604;2023-02-07T08:29:50;97080.91;;;2.41;100.00
13314;BME280;6725;48.112;11.604;2023-02-07T08:32:15;97069.69;;;1.73;100.00
13314;BME280;6725;48.112;11.604;2023-02-07T08:34:40;97072.28;;;2.08;100.00
13314;BME280;6725;48.112;11.604;2023-02-07T08:37:07;97080.97;;;1.39;100.00
13314;BME280;6725;48.112;11.604;2023-02-07T08:39:34;97078.66;;;2.12;100.00
13314;BME280;6725;48.112;11.604;2023-02-07T08:42:00;97074.34;;;1.45;100.00
13314;BME280;6725;48.112;11.604;2023-02-07T08:44:26;97081.63;;;1.80;100.00
13314;BME280;6725;48.112;11.604;2023-02-07T08:46:51;97074.44;;;2.50;100.00
13314;BME280;6725;48.112;11.604;2023-02-07T08:49:17;97080.72;;;3.15;100.00
13314;BME280;6725;48.112;11.604;2023-02-07T08:51:42;97080.00;;;2.54;100.00
13314;BME280;6725;48.112;11.604;2023-02-07T08:54:07;97086.59;;;3.26;100.00
13314;BME280;6725;48.112;11.604;2023-02-07T08:56:33;97093.81;;;2.91;100.00
13314;BME280;6725;48.112;11.604;2023-02-07T08:58:59;97086.75;;;2.73;100.00
13314;BME280;6725;48.112;11.604;2023-02-07T09:01:24;97097.59;;;2.51;100.00
13314;BME280;6725;48.112;11.604;2023-02-07T09:03:54;97090.44;;;2.47;100.00
13314;BME280;6725;48.112;11.604;2023-02-07T09:06:24;97083.09;;;2.39;100.00
13314;BME280;6725;48.112;11.604;2023-02-07T09:08:50;97078.16;;;2.32;100.00
13314;BME280;6725;48.112;11.604;2023-02-07T09:11:16;97100.31;;;1.63;100.00
13314;BME280;6725;48.112;11.604;2023-02-07T09:13:42;97090.75;;;2.84;100.00
13314;BME280;6725;48.112;11.604;2023-02-07T09:16:10;97099.16;;;2.83;100.00
13314;BME280;6725;48.112;11.604;2023-02-07T09:18:36;97090.88;;;3.18;100.00
13314;BME280;6725;48.112;11.604;2023-02-07T09:21:02;97101.00;;;3.04;100.00
13314;BME280;6725;48.112;11.604;2023-02-07T09:23:27;97094.09;;;3.37;100.00
13314;BME280;6725;48.112;11.604;2023-02-07T09:25:53;97099.66;;;4.26;100.00
13314;BME280;6725;48.112;11.604;2023-02-07T09:28:20;97100.66;;;3.62;100.00
13314;BME280;6725;48.112;11.604;2023-02-07T09:30:48;97094.06;;;3.20;100.00
13314;BME280;6725;48.112;11.604;2023-02-07T09:33:14;97093.97;;;3.85;100.00
13314;BME280;6725;48.112;11.604;2023-02-07T09:35:43;97106.25;;;2.70;100.00
13314;BME280;6725;48.112;11.604;2023-02-07T09:38:13;97107.06;;;3.18;100.00
13314;BME280;6725;48.112;11.604;2023-02-07T09:40:38;97098.94;;;4.63;100.00
13314;BME280;6725;48.112;11.604;2023-02-07T09:45:47;97096.91;;;3.15;100.00
13314;BME280;6725;48.112;11.604;2023-02-07T09:48:22;97112.00;;;2.47;100.00
13314;BME280;6725;48.112;11.604;2023-02-07T09:50:54;97109.38;;;2.94;100.00
13314;BME280;6725;48.112;11.604;2023-02-07T09:53:25;97116.50;;;2.90;100.00
13314;BME280;6725;48.112;11.604;2023-02-07T09:55:58;97109.34;;;3.42;100.00
13314;BME280;6725;48.112;11.604;2023-02-07T09:58:41;97097.88;;;3.36;100.00
13314;BME280;6725;48.112;11.604;2023-02-07T10:01:15;97096.19;;;4.17;100.00
13314;BME280;6725;48.112;11.604;2023-02-07T10:06:51;97101.09;;;4.24;100.00
13314;BME280;6725;48.112;11.604;2023-02-07T10:09:21;97096.69;;;4.11;100.00
13314;BME280;6725;48.112;11.604;2023-02-07T10:15:09;97100.97;;;3.78;100.00
13314;BME280;6725;48.112;11.604;2023-02-07T10:20:32;97097.56;;;4.32;100.00
13314;BME280;6725;48.112;11.604;2023-02-07T10:26:01;97084.59;;;3.66;100.00
13314;BME280;6725;48.112;11.604;2023-02-07T10:31:12;97094.28;;;2.24;100.00
13314;BME280;6725;48.112;11.604;2023-02-07T10:33:49;97083.69;;;3.05;100.00
13314;BME280;6725;48.112;11.604;2023-02-07T10:36:16;97093.09;;;3.16;100.00
13314;BME280;6725;48.112;11.604;2023-02-07T10:38:49;97087.50;;;3.04;100.00
13314;BME280;6725;48.112;11.604;2023-02-07T10:41:35;97096.63;;;3.42;100.00
13314;BME280;6725;48.112;11.604;2023-02-07T10:44:05;97081.03;;;4.25;100.00
13314;BME280;6725;48.112;11.604;2023-02-07T10:46:32;97088.94;;;4.47;100.00
13314;BME280;6725;48.112;11.604;2023-02-07T10:48:59;97086.19;;;4.01;100.00
13314;BME280;6725;48.112;11.604;2023-02-07T10:51:28;97090.47;;;3.93;100.00
13314;BME280;6725;48.112;11.604;2023-02-07T10:54:05;97115.25;;;3.53;100.00
13314;BME280;6725;48.112;11.604;2023-02-07T10:56:39;97099.84;;;3.62;100.00
13314;BME280;6725;48.112;11.604;2023-02-07T11:01:59;97090.78;;;4.17;100.00
13314;BME280;6725;48.112;11.604;2023-02-07T11:04:37;97100.81;;;4.00;100.00
13314;BME280;6725;48.112;11.604;2023-02-07T11:07:05;97097.69;;;3.16;100.00
13314;BME280;6725;48.112;11.604;2023-02-07T11:09:31;97092.38;;;3.67;100.00
13314;BME280;6725;48.112;11.604;2023-02-07T11:12:12;97095.53;;;3.43;100.00
13314;BME280;6725;48.112;11.604;2023-02-07T11:14:38;97116.88;;;3.14;100.00
13314;BME280;6725;48.112;11.604;2023-02-07T11:17:04;97093.59;;;3.27;100.00
13314;BME280;6725;48.112;11.604;2023-02-07T11:19:29;97098.91;;;2.62;100.00
13314;BME280;6725;48.112;11.604;2023-02-07T11:22:16;97092.47;;;2.41;100.00
13314;BME280;6725;48.112;11.604;2023-02-07T11:24:43;97097.53;;;1.90;100.00
13314;BME280;6725;48.112;11.604;2023-02-07T11:27:17;97089.97;;;1.21;100.00
13314;BME280;6725;48.112;11.604;2023-02-07T11:32:18;97093.97;;;1.10;100.00
13314;BME280;6725;48.112;11.604;2023-02-07T11:34:56;97080.22;;;0.98;100.00
13314;BME280;6725;48.112;11.604;2023-02-07T11:37:33;97085.91;;;0.83;100.00
13314;BME280;6725;48.112;11.604;2023-02-07T11:42:43;97074.84;;;0.98;100.00
13314;BME280;6725;48.112;11.604;2023-02-07T11:45:15;97071.34;;;1.11;100.00
13314;BME280;6725;48.112;11.604;2023-02-07T11:47:42;97064.25;;;1.29;100.00
13314;BME280;6725;48.112;11.604;2023-02-07T11:50:23;97063.28;;;1.11;100.00
13314;BME280;6725;48.112;11.604;2023-02-07T11:52:52;97064.28;;;1.15;100.00
13314;BME280;6725;48.112;11.604;2023-02-07T11:55:25;97038.75;;;1.26;100.00
13314;BME280;6725;48.112;11.604;2023-02-07T11:57:54;97042.50;;;1.39;100.00
13314;BME280;6725;48.112;11.604;2023-02-07T12:00:24;97052.91;;;1.18;100.00
13314;BME280;6725;48.112;11.604;2023-02-07T12:03:05;97036.56;;;1.28;100.00
13314;BME280;6725;48.112;11.604;2023-02-07T12:05:41;97028.59;;;1.23;100.00
13314;BME280;6725;48.112;11.604;2023-02-07T12:08:13;97031.91;;;1.42;100.00
13314;BME280;6725;48.112;11.604;2023-02-07T12:10:43;97025.06;;;1.36;100.00
13314;BME280;6725;48.112;11.604;2023-02-07T12:13:16;97033.53;;;1.65;100.00
13314;BME280;6725;48.112;11.604;2023-02-07T12:15:47;97039.31;;;1.81;100.00
13314;BME280;6725;48.112;11.604;2023-02-07T12:18:30;97038.03;;;1.56;100.00
13314;BME280;6725;48.112;11.604;2023-02-07T12:21:05;97027.78;;;1.80;100.00
13314;BME280;6725;48.112;11.604;2023-02-07T12:23:40;97034.50;;;1.91;100.00
13314;BME280;6725;48.112;11.604;2023-02-07T12:26:36;97042.59;;;1.69;100.00
13314;BME280;6725;48.112;11.604;2023-02-07T12:34:50;97039.91;;;1.69;89.31
13314;BME280;6725;48.112;11.604;2023-02-07T12:42:58;97016.97;;;2.02;88.58
13314;BME280;6725;48.112;11.604;2023-02-07T12:50:49;97012.69;;;2.01;85.26
13314;BME280;6725;48.112;11.604;2023-02-07T12:56:21;97014.91;;;1.99;81.94
13314;BME280;6725;48.112;11.604;2023-02-07T12:58:59;97015.63;;;2.13;80.81
13314;BME280;6725;48.112;11.604;2023-02-07T13:01:41;97015.78;;;2.17;78.03
13314;BME280;6725;48.112;11.604;2023-02-07T13:09:48;97022.06;;;2.04;83.95
13314;BME280;6725;48.112;11.604;2023-02-07T13:15:31;97013.13;;;2.25;86.09
13314;BME280;6725;48.112;11.604;2023-02-07T13:18:10;97013.66;;;2.36;86.05
13314;BME280;6725;48.112;11.604;2023-02-07T13:23:15;97017.91;;;2.28;84.45
13314;BME280;6725;48.112;11.604;2023-02-07T13:25:43;97008.44;;;2.09;83.66
13314;BME280;6725;48.112;11.604;2023-02-07T13:28:19;97010.47;;;2.03;86.71
13314;BME280;6725;48.112;11.604;2023-02-07T13:30:47;97015.75;;;1.86;89.07
13314;BME280;6725;48.112;11.604;2023-02-07T13:35:50;97012.16;;;1.69;92.49
13314;BME280;6725;48.112;11.604;2023-02-07T13:38:25;97012.09;;;1.82;92.03
13314;BME280;6725;48.112;11.604;2023-02-07T13:41:02;97007.66;;;1.78;89.45
13314;BME280;6725;48.112;11.604;2023-02-07T13:47:05;97017.63;;;1.77;88.29
13314;BME280;6725;48.112;11.604;2023-02-07T13:49:44;97011.63;;;1.80;89.09
13314;BME280;6725;48.112;11.604;2023-02-07T13:52:28;97019.94;;;1.92;87.17
13314;BME280;6725;48.112;11.604;2023-02-07T13:57:42;97013.03;;;1.78;85.42
13314;BME280;6725;48.112;11.604;2023-02-07T14:00:34;97029.00;;;1.74;82.01
13314;BME280;6725;48.112;11.604;2023-02-07T14:03:03;97032.19;;;1.76;82.90
13314;BME280;6725;48.112;11.604;2023-02-07T14:05:32;97040.00;;;1.86;85.66
13314;BME280;6725;48.112;11.604;2023-02-07T14:08:01;97035.72;;;1.85;88.27
13314;BME280;6725;48.112;11.604;2023-02-07T14:10:37;97026.53;;;1.86;91.06
13314;BME280;6725;48.112;11.604;2023-02-07T14:13:04;97028.63;;;1.89;94.75
13314;BME280;6725;48.112;11.604;2023-02-07T14:30:38;97051.41;;;1.48;100.00
13314;BME280;6725;48.112;11.604;2023-02-07T14:33:37;97060.44;;;1.43;100.00
13314;BME280;6725;48.112;11.604;2023-02-07T14:38:40;97057.22;;;1.41;100.00
13314;BME280;6725;48.112;11.604;2023-02-07T14:41:08;97060.88;;;1.23;100.00
13314;BME280;6725;48.112;11.604;2023-02-07T14:46:23;97061.94;;;1.36;100.00
13314;BME280;6725;48.112;11.604;2023-02-07T14:54:04;97069.16;;;1.13;100.00
13314;BME280;6725;48.112;11.604;2023-02-07T14:56:39;97067.44;;;1.17;100.00
13314;BME280;6725;48.112;11.604;2023-02-07T14:59:08;97071.84;;;1.13;100.00
13314;BME280;6725;48.112;11.604;2023-02-07T15:01:35;97070.81;;;1.23;100.00
13314;BME280;6725;48.112;11.604;2023-02-07T15:04:03;97076.63;;;1.16;100.00
13314;BME280;6725;48.112;11.604;2023-02-07T15:06:36;97081.41;;;1.19;100.00
13314;BME280;6725;48.112;11.604;2023-02-07T15:09:02;97075.16;;;1.10;100.00
13314;BME280;6725;48.112;11.604;2023-02-07T15:11:28;97080.41;;;1.15;100.00
13314;BME280;6725;48.112;11.604;2023-02-07T15:14:00;97072.63;;;1.14;100.00
13314;BME280;6725;48.112;11.604;2023-02-07T15:16:31;97082.81;;;1.03;100.00
13314;BME280;6725;48.112;11.604;2023-02-07T15:19:09;97090.00;;;0.94;100.00